Bowmont, Idaho
Current Conditions -  °F | °C
As of 3:55 AM on Sunday 26 Oct 2014 (Local Time) from KMAN Reporting Station
Overcast Overcast  
Wind Chill: 55°   Ceiling: 8000
Heat Index: 55°   Visibility: 10mi
Dew Point: 36°   Wind: 9mph
Humidity: 47%   Direction: 260°W
Pressure: 29.97"   Gusts: NA
Location:  43.4956°N, 116.608°W
Report Text: KMAN 260955Z AUTO 26008KT 10SM FEW031 SCT065 OVC080 13/02 A2997 RMK AO1
Loading
Personal Weather Stations






























Interactive Weather Map
Tropical Storm Tracking
New forecast layout! Learn more

10-Day Weather Forecast

Advertisements
Track Severe Weather on mobile